createdAt,value
2019-04-21T00:01:01.608Z,10.78
2019-04-21T00:03:07.432Z,10.13
2019-04-21T00:05:24.596Z,10.70
2019-04-21T00:07:33.206Z,11.65
2019-04-21T00:09:41.085Z,11.60
2019-04-21T00:11:41.309Z,12.03
2019-04-21T00:13:42.580Z,12.37
2019-04-21T00:15:42.304Z,11.55
2019-04-21T00:17:39.095Z,11.88
2019-04-21T00:19:47.684Z,12.35
2019-04-21T00:22:01.567Z,12.53
2019-04-21T00:24:21.528Z,12.05
2019-04-21T00:26:35.182Z,13.65
2019-04-21T00:28:42.826Z,12.23
2019-04-21T00:30:44.426Z,12.63
2019-04-21T00:32:41.576Z,12.30
2019-04-21T00:34:36.233Z,13.22
2019-04-21T00:36:51.550Z,12.90
2019-04-21T00:39:14.551Z,13.35
2019-04-21T00:41:13.687Z,13.48
2019-04-21T00:43:15.085Z,13.93
2019-04-21T00:45:16.216Z,14.93
2019-04-21T00:47:33.014Z,14.68
2019-04-21T00:49:27.032Z,14.78
2019-04-21T00:51:46.817Z,15.20
2019-04-21T00:53:58.326Z,16.48
2019-04-21T00:56:01.525Z,15.35
2019-04-21T00:58:03.721Z,16.50
2019-04-21T01:00:07.333Z,16.85
2019-04-21T01:02:09.415Z,16.27
2019-04-21T01:04:15.591Z,17.35
2019-04-21T01:06:23.052Z,16.77
2019-04-21T01:08:25.216Z,16.67
2019-04-21T01:10:27.330Z,15.78
2019-04-21T01:12:43.401Z,17.20
2019-04-21T01:14:53.798Z,16.73
2019-04-21T01:16:56.047Z,17.35
2019-04-21T01:18:54.850Z,17.87
2019-04-21T01:20:40.067Z,16.55
2019-04-21T01:22:43.638Z,16.45
2019-04-21T01:29:11.908Z,16.32
2019-04-21T01:31:21.374Z,17.32
2019-04-21T01:33:36.285Z,16.00
2019-04-21T01:35:38.194Z,16.00
2019-04-21T01:37:44.139Z,16.73
2019-04-21T01:39:49.622Z,16.62
2019-04-21T01:41:55.449Z,17.00
2019-04-21T01:43:49.169Z,17.50
2019-04-21T01:46:04.495Z,16.75
2019-04-21T01:48:01.283Z,16.37
2019-04-21T01:49:59.491Z,17.10
2019-04-21T01:52:31.376Z,16.70
2019-04-21T01:54:41.734Z,16.17
2019-04-21T01:56:51.244Z,17.42
2019-04-21T01:58:49.358Z,16.67
2019-04-21T02:01:08.753Z,15.35
2019-04-21T02:03:36.237Z,15.38
2019-04-21T02:05:34.609Z,16.15
2019-04-21T02:07:32.916Z,16.32
2019-04-21T02:09:38.102Z,15.25
2019-04-21T02:11:51.554Z,16.23
2019-04-21T02:13:58.882Z,15.65
2019-04-21T02:15:59.365Z,15.05
2019-04-21T02:17:59.079Z,15.63
2019-04-21T02:19:55.110Z,15.80
2019-04-21T02:22:04.486Z,16.42
2019-04-21T02:24:27.327Z,15.10
2019-04-21T02:26:22.653Z,14.95
2019-04-21T02:28:40.456Z,16.60
2019-04-21T02:30:49.269Z,16.82
2019-04-21T02:32:48.081Z,15.95
2019-04-21T02:35:02.340Z,15.85
2019-04-21T02:37:17.622Z,16.15
2019-04-21T02:39:08.276Z,15.35
2019-04-21T02:41:21.443Z,15.55
2019-04-21T02:47:38.949Z,16.55
2019-04-21T02:55:48.094Z,15.78
2019-04-21T02:57:59.359Z,16.30
2019-04-21T03:02:17.199Z,15.68
2019-04-21T03:04:42.664Z,15.68
2019-04-21T03:10:59.306Z,15.50
2019-04-21T03:13:05.678Z,14.47
2019-04-21T03:15:18.270Z,15.88
2019-04-21T03:17:14.249Z,16.57
2019-04-21T03:19:17.499Z,15.35
2019-04-21T03:21:20.475Z,15.98
2019-04-21T03:23:28.048Z,17.07
2019-04-21T03:28:04.954Z,16.93
2019-04-21T03:29:48.329Z,16.82
2019-04-21T03:34:34.908Z,15.88
2019-04-21T03:36:33.239Z,16.00
2019-04-21T03:38:03.899Z,16.00
2019-04-21T03:40:07.613Z,16.00
2019-04-21T03:50:33.678Z,16.48
2019-04-21T03:52:49.668Z,16.35
2019-04-21T03:57:48.999Z,15.53
2019-04-21T03:59:38.496Z,15.68
2019-04-21T04:01:41.265Z,16.77
2019-04-21T04:08:08.725Z,17.15
2019-04-21T04:10:07.777Z,16.65
2019-04-21T04:12:15.219Z,16.62
2019-04-21T04:18:39.201Z,16.73
2019-04-21T04:20:39.825Z,17.42
2019-04-21T04:24:49.336Z,18.12
2019-04-21T04:29:08.738Z,16.07
2019-04-21T04:31:06.512Z,17.27
2019-04-21T04:33:08.037Z,18.17
2019-04-21T04:37:30.262Z,17.57
2019-04-21T04:41:42.124Z,17.87
2019-04-21T04:43:39.544Z,17.23
2019-04-21T04:47:54.685Z,18.62
2019-04-21T04:53:54.464Z,19.23
2019-04-21T04:56:12.478Z,18.12
2019-04-21T04:58:56.287Z,18.60
2019-04-21T05:00:25.725Z,18.25
2019-04-21T05:04:39.684Z,18.42
2019-04-21T05:06:46.240Z,17.90
2019-04-21T05:08:58.892Z,17.62
2019-04-21T05:10:56.825Z,17.98
2019-04-21T05:17:24.874Z,18.87
2019-04-21T05:23:15.724Z,16.30
2019-04-21T05:25:08.554Z,16.82
2019-04-21T05:27:29.598Z,17.35
2019-04-21T05:29:52.188Z,16.23
2019-04-21T05:31:56.769Z,15.65
2019-04-21T05:34:04.756Z,15.23
2019-04-21T05:36:15.770Z,15.00
2019-04-21T05:38:22.330Z,14.18
2019-04-21T05:40:29.691Z,13.83
2019-04-21T05:42:38.266Z,13.72
2019-04-21T05:44:56.310Z,11.88
2019-04-21T05:47:05.961Z,12.20
2019-04-21T05:48:57.480Z,11.40
2019-04-21T05:51:00.174Z,10.93
2019-04-21T05:53:13.547Z,11.20
2019-04-21T05:55:16.712Z,9.83
2019-04-21T05:57:14.655Z,9.80
2019-04-21T05:59:26.506Z,8.95
2019-04-21T06:01:39.478Z,9.88
2019-04-21T06:05:53.375Z,9.55
2019-04-21T06:07:46.157Z,9.88
2019-04-21T06:09:57.191Z,9.35
2019-04-21T06:12:03.785Z,10.15
2019-04-21T06:14:08.304Z,10.40
2019-04-21T06:16:07.368Z,9.68
2019-04-21T06:18:21.856Z,9.53
2019-04-21T06:20:22.668Z,9.70
2019-04-21T06:22:23.506Z,9.88
2019-04-21T06:24:39.210Z,9.93
2019-04-21T06:28:49.093Z,10.60
2019-04-21T06:31:00.485Z,10.38
2019-04-21T06:32:59.428Z,10.28
2019-04-21T06:35:20.726Z,10.43
2019-04-21T06:39:30.507Z,9.75
2019-04-21T06:43:33.270Z,9.68
2019-04-21T06:45:44.358Z,9.73
2019-04-21T06:47:53.953Z,8.75
2019-04-21T06:49:42.838Z,9.05
2019-04-21T06:51:54.802Z,7.45
2019-04-21T06:54:03.876Z,7.62
2019-04-21T06:56:06.073Z,8.18
2019-04-21T06:58:11.917Z,8.00
2019-04-21T07:00:14.966Z,9.83
2019-04-21T07:02:36.074Z,8.80
2019-04-21T07:04:27.975Z,9.00
2019-04-21T07:06:40.267Z,9.00
2019-04-21T07:10:41.662Z,8.10
2019-04-21T07:12:44.957Z,8.23
2019-04-21T07:14:56.278Z,8.23
2019-04-21T07:16:57.875Z,8.33
2019-04-21T07:19:14.524Z,6.90
2019-04-21T07:21:08.281Z,6.85
2019-04-21T07:23:16.240Z,6.90
2019-04-21T07:25:22.596Z,7.45
2019-04-21T07:27:22.200Z,7.05
2019-04-21T07:29:34.888Z,7.22
2019-04-21T07:31:39.773Z,6.87
2019-04-21T07:35:45.761Z,6.47
2019-04-21T07:37:48.106Z,6.08
2019-04-21T07:39:53.137Z,4.90
2019-04-21T07:41:54.303Z,4.80
2019-04-21T07:44:00.286Z,4.25
2019-04-21T07:46:03.618Z,4.15
2019-04-21T07:48:14.336Z,5.12
2019-04-21T07:50:38.246Z,5.03
2019-04-21T07:53:05.209Z,5.47
2019-04-21T07:55:16.119Z,4.90
2019-04-21T07:56:56.057Z,4.40
2019-04-21T07:59:18.861Z,4.65
2019-04-21T08:01:22.596Z,4.30
2019-04-21T08:03:20.454Z,4.40
2019-04-21T08:05:33.969Z,5.33
2019-04-21T08:07:47.673Z,5.47
2019-04-21T08:09:42.677Z,5.35
2019-04-21T08:11:44.359Z,5.65
2019-04-21T08:13:55.052Z,6.30
2019-04-21T08:15:58.013Z,5.75
2019-04-21T08:18:00.706Z,6.37
2019-04-21T08:20:07.426Z,5.75
2019-04-21T08:22:18.566Z,6.03
2019-04-21T08:24:18.205Z,6.55
2019-04-21T08:26:26.896Z,4.53
2019-04-21T08:28:28.969Z,4.33
2019-04-21T08:32:57.620Z,4.10
2019-04-21T08:34:59.511Z,4.00
2019-04-21T08:37:04.012Z,4.17
2019-04-21T08:38:57.029Z,4.25
2019-04-21T08:41:03.562Z,4.47
2019-04-21T08:43:02.916Z,4.42
2019-04-21T08:45:16.246Z,3.40
2019-04-21T08:47:20.528Z,3.47
2019-04-21T08:49:22.177Z,3.65
2019-04-21T08:51:34.073Z,4.10
2019-04-21T08:53:34.274Z,4.35
2019-04-21T08:58:10.965Z,4.20
2019-04-21T09:00:12.544Z,3.58
2019-04-21T09:02:19.812Z,3.67
2019-04-21T09:04:26.138Z,4.05
2019-04-21T09:08:33.308Z,3.33
2019-04-21T09:10:39.664Z,3.17
2019-04-21T09:12:40.420Z,3.20
2019-04-21T09:14:50.693Z,3.47
2019-04-21T09:16:53.391Z,3.62
2019-04-21T09:18:54.081Z,3.90
2019-04-21T09:21:04.566Z,4.03
2019-04-21T09:23:06.385Z,4.28
2019-04-21T09:25:19.582Z,3.37
2019-04-21T09:27:20.279Z,3.85
2019-04-21T09:29:18.010Z,3.62
2019-04-21T09:31:17.976Z,4.00
2019-04-21T09:33:18.478Z,3.72
2019-04-21T09:35:22.707Z,3.30
2019-04-21T09:37:40.039Z,3.02
2019-04-21T09:39:33.720Z,3.12
2019-04-21T09:41:39.515Z,3.62
2019-04-21T09:43:47.382Z,3.42
2019-04-21T09:45:49.640Z,3.22
2019-04-21T09:48:00.860Z,3.55
2019-04-21T09:49:58.588Z,3.40
2019-04-21T09:52:08.908Z,3.20
2019-04-21T09:54:16.014Z,2.60
2019-04-21T09:56:17.981Z,3.40
2019-04-21T09:58:29.277Z,3.65
2019-04-21T10:00:29.340Z,3.60
2019-04-21T10:02:38.513Z,3.40
2019-04-21T10:04:35.851Z,3.50
2019-04-21T10:08:44.353Z,3.30
2019-04-21T10:10:49.074Z,3.60
2019-04-21T10:12:53.898Z,3.77
2019-04-21T10:14:57.528Z,4.00
2019-04-21T10:17:21.712Z,4.00
2019-04-21T10:21:29.429Z,4.30
2019-04-21T10:23:33.858Z,4.28
2019-04-21T10:25:38.630Z,4.58
2019-04-21T10:27:43.194Z,4.65
2019-04-21T10:29:48.557Z,4.17
2019-04-21T10:31:52.477Z,4.60
2019-04-21T10:33:56.161Z,4.83
2019-04-21T10:38:14.962Z,4.22
2019-04-21T10:40:09.625Z,4.12
2019-04-21T10:42:13.442Z,4.28
2019-04-21T10:46:20.719Z,4.42
2019-04-21T10:50:28.772Z,4.40
2019-04-21T10:52:50.982Z,4.58
2019-04-21T10:55:12.776Z,5.00
2019-04-21T10:57:02.103Z,5.10
2019-04-21T10:59:05.904Z,5.35
2019-04-21T11:01:13.878Z,5.10
2019-04-21T11:03:35.263Z,4.72
2019-04-21T11:05:38.967Z,4.30
2019-04-21T11:09:49.624Z,4.90
2019-04-21T11:11:53.625Z,5.42
2019-04-21T11:13:57.247Z,4.58
2019-04-21T11:18:06.108Z,5.50
2019-04-21T11:20:10.831Z,5.20
2019-04-21T11:22:14.861Z,5.12
2019-04-21T11:24:18.431Z,4.67
2019-04-21T11:26:22.118Z,4.78
2019-04-21T11:28:27.092Z,4.85
2019-04-21T11:30:31.715Z,4.83
2019-04-21T11:32:35.409Z,4.67
2019-04-21T11:36:43.808Z,5.33
2019-04-21T11:39:19.330Z,5.03
2019-04-21T11:41:11.917Z,5.03
2019-04-21T11:43:15.764Z,4.85
2019-04-21T11:45:32.735Z,4.50
2019-04-21T11:47:38.513Z,4.70
2019-04-21T11:49:43.156Z,4.97
2019-04-21T11:51:47.021Z,3.70
2019-04-21T11:53:50.888Z,4.40
2019-04-21T11:55:55.573Z,4.25
2019-04-21T11:58:00.291Z,4.55
2019-04-21T12:00:06.191Z,4.90
2019-04-21T12:02:09.836Z,4.30
2019-04-21T12:06:17.589Z,4.60
2019-04-21T12:10:25.719Z,4.95
2019-04-21T12:12:29.621Z,4.60
2019-04-21T12:14:34.201Z,4.75
2019-04-21T12:16:39.101Z,4.67
2019-04-21T12:18:43.009Z,4.65
2019-04-21T12:20:47.343Z,4.60
2019-04-21T12:22:51.034Z,4.50
2019-04-21T12:24:55.508Z,4.67
2019-04-21T12:27:00.039Z,4.30
2019-04-21T12:29:03.949Z,4.45
2019-04-21T12:31:09.690Z,4.33
2019-04-21T12:33:34.162Z,4.30
2019-04-21T12:35:38.021Z,4.10
2019-04-21T12:37:42.786Z,4.28
2019-04-21T12:39:46.546Z,4.45
2019-04-21T12:41:50.777Z,4.58
2019-04-21T12:43:55.008Z,4.47
2019-04-21T12:45:59.784Z,4.20
2019-04-21T12:48:04.260Z,4.42
2019-04-21T12:50:10.794Z,4.60
2019-04-21T12:52:15.637Z,4.47
2019-04-21T12:54:19.645Z,4.20
2019-04-21T12:56:23.440Z,4.83
2019-04-21T12:58:27.156Z,4.28
2019-04-21T13:02:35.801Z,4.40
2019-04-21T13:04:40.038Z,4.28
2019-04-21T13:06:43.749Z,4.62
2019-04-21T13:08:54.522Z,4.28
2019-04-21T13:10:53.972Z,4.28
2019-04-21T13:12:57.721Z,3.87
2019-04-21T13:17:06.037Z,3.90
2019-04-21T13:19:09.602Z,3.83
2019-04-21T13:23:16.786Z,4.08
2019-04-21T13:25:20.530Z,4.53
2019-04-21T13:27:24.803Z,4.17
2019-04-21T13:29:28.625Z,3.70
2019-04-21T13:31:32.212Z,4.58
2019-04-21T13:33:35.844Z,4.28
2019-04-21T13:35:41.209Z,3.72
2019-04-21T13:37:48.468Z,3.85
2019-04-21T13:40:23.722Z,3.55
2019-04-21T13:42:21.337Z,3.70
2019-04-21T13:44:19.119Z,3.83
2019-04-21T13:46:22.858Z,3.90
2019-04-21T13:48:26.561Z,3.72
2019-04-21T13:50:31.168Z,4.37
2019-04-21T13:52:36.363Z,4.53
2019-04-21T13:54:40.242Z,3.85
2019-04-21T13:56:44.924Z,4.05
2019-04-21T13:58:48.610Z,4.30
2019-04-21T14:02:56.543Z,4.20
2019-04-21T14:05:01.172Z,3.90
2019-04-21T14:07:06.065Z,4.67
2019-04-21T14:09:11.609Z,4.08
2019-04-21T14:11:15.578Z,4.15
2019-04-21T14:13:20.426Z,4.28
2019-04-21T14:15:24.507Z,3.98
2019-04-21T14:17:28.795Z,4.62
2019-04-21T14:19:33.199Z,4.47
2019-04-21T14:21:37.136Z,4.37
2019-04-21T14:23:46.009Z,4.35
2019-04-21T14:25:46.373Z,3.60
2019-04-21T14:27:51.908Z,3.50
2019-04-21T14:29:55.610Z,3.20
2019-04-21T14:32:00.095Z,3.30
2019-04-21T14:34:03.940Z,3.33
2019-04-21T14:36:08.625Z,3.30
2019-04-21T14:38:12.310Z,3.12
2019-04-21T14:40:22.501Z,3.00
2019-04-21T14:42:22.180Z,2.80
2019-04-21T14:44:27.090Z,2.90
2019-04-21T14:46:39.547Z,3.00
2019-04-21T14:49:01.329Z,3.40
2019-04-21T14:51:06.757Z,2.80
2019-04-21T14:53:15.865Z,2.77
2019-04-21T14:55:24.896Z,2.92
2019-04-21T14:57:29.492Z,3.40
2019-04-21T14:59:33.404Z,3.47
2019-04-21T15:01:37.808Z,3.30
2019-04-21T15:03:41.744Z,2.90
2019-04-21T15:05:45.430Z,3.25
2019-04-21T15:07:49.040Z,3.17
2019-04-21T15:10:03.528Z,3.47
2019-04-21T15:11:58.193Z,3.62
2019-04-21T15:14:04.092Z,3.90
2019-04-21T15:16:08.903Z,3.52
2019-04-21T15:18:12.709Z,3.50
2019-04-21T15:20:18.206Z,2.92
2019-04-21T15:22:21.762Z,3.40
2019-04-21T15:24:26.637Z,3.00
2019-04-21T15:26:30.510Z,3.65
2019-04-21T15:28:36.980Z,3.75
2019-04-21T15:30:40.784Z,3.58
2019-04-21T15:32:44.456Z,3.85
2019-04-21T15:34:48.119Z,3.55
2019-04-21T15:36:52.391Z,3.85
2019-04-21T15:38:56.175Z,3.60
2019-04-21T15:41:03.844Z,3.70
2019-04-21T15:43:06.304Z,3.20
2019-04-21T15:45:10.567Z,3.92
2019-04-21T15:47:14.159Z,3.27
2019-04-21T15:49:17.759Z,3.15
2019-04-21T15:51:21.990Z,3.30
2019-04-21T15:53:27.703Z,3.05
2019-04-21T15:55:52.510Z,3.52
2019-04-21T15:58:01.018Z,3.52
2019-04-21T16:00:10.994Z,3.20
2019-04-21T16:02:32.836Z,3.17
2019-04-21T16:04:36.831Z,3.27
2019-04-21T16:06:41.599Z,2.90
2019-04-21T16:08:47.556Z,3.20
2019-04-21T16:10:56.088Z,2.98
2019-04-21T16:12:56.053Z,3.40
2019-04-21T16:15:00.703Z,3.12
2019-04-21T16:17:05.368Z,3.08
2019-04-21T16:19:10.069Z,2.98
2019-04-21T16:21:13.925Z,2.98
2019-04-21T16:23:18.623Z,3.30
2019-04-21T16:25:23.189Z,3.42
2019-04-21T16:27:27.648Z,3.27
2019-04-21T16:29:31.541Z,3.33
2019-04-21T16:31:36.226Z,3.60
2019-04-21T16:33:41.062Z,3.30
2019-04-21T16:35:44.657Z,3.85
2019-04-21T16:37:48.218Z,3.45
2019-04-21T16:39:51.876Z,3.35
2019-04-21T16:41:56.323Z,3.92
2019-04-21T16:44:00.935Z,3.75
2019-04-21T16:46:04.768Z,3.75
2019-04-21T16:48:09.473Z,3.80
2019-04-21T16:50:13.933Z,3.30
2019-04-21T16:52:20.373Z,3.87
2019-04-21T16:54:26.226Z,3.62
2019-04-21T16:56:32.967Z,3.83
2019-04-21T16:58:44.961Z,3.42
2019-04-21T17:01:11.982Z,3.50
2019-04-21T17:03:10.795Z,3.35
2019-04-21T17:05:14.608Z,3.80
2019-04-21T17:07:18.276Z,3.80
2019-04-21T17:09:22.955Z,3.67
2019-04-21T17:13:32.141Z,4.03
2019-04-21T17:15:56.692Z,4.12
2019-04-21T17:16:27.369Z,3.75
2019-04-21T17:18:03.380Z,3.67
2019-04-21T17:19:49.054Z,3.37
2019-04-21T17:21:52.170Z,3.80
2019-04-21T17:23:56.626Z,3.77
2019-04-21T17:26:01.129Z,3.72
2019-04-21T17:28:05.963Z,3.42
2019-04-21T17:30:12.590Z,3.42
2019-04-21T17:32:16.753Z,3.37
2019-04-21T17:34:24.976Z,3.92
2019-04-21T17:36:27.175Z,3.67
2019-04-21T17:38:32.081Z,3.92
2019-04-21T17:40:37.860Z,3.58
2019-04-21T17:42:46.392Z,3.60
2019-04-21T17:44:47.677Z,3.90
2019-04-21T17:47:00.707Z,3.50
2019-04-21T17:48:57.011Z,3.70
2019-04-21T17:53:35.693Z,4.35
2019-04-21T17:56:05.380Z,4.75
2019-04-21T17:58:09.410Z,4.47
2019-04-21T18:00:26.135Z,5.95
2019-04-21T18:02:34.011Z,5.17
2019-04-21T18:04:33.488Z,5.30
2019-04-21T18:06:36.675Z,4.42
2019-04-21T18:08:47.860Z,4.70
2019-04-21T18:10:45.659Z,4.72
2019-04-21T18:12:45.897Z,6.03
2019-04-21T18:14:51.862Z,5.78
2019-04-21T18:16:48.215Z,4.50
2019-04-21T18:18:50.789Z,5.10
2019-04-21T18:20:59.137Z,4.70
2019-04-21T18:23:15.130Z,4.90
2019-04-21T18:25:31.916Z,4.75
2019-04-21T18:27:26.702Z,4.95
2019-04-21T18:29:30.045Z,5.40
2019-04-21T18:31:39.784Z,4.70
2019-04-21T18:33:43.700Z,5.40
2019-04-21T18:36:00.676Z,6.22
2019-04-21T18:38:15.786Z,5.83
2019-04-21T18:40:21.672Z,6.90
2019-04-21T18:42:40.818Z,6.00
2019-04-21T18:45:06.480Z,6.60
2019-04-21T18:48:57.223Z,7.62
2019-04-21T18:51:06.150Z,8.73
2019-04-21T18:53:41.188Z,8.58
2019-04-21T18:55:39.196Z,7.33
2019-04-21T18:57:42.383Z,6.67
2019-04-21T18:59:45.135Z,6.37
2019-04-21T19:01:52.684Z,6.42
2019-04-21T19:03:55.694Z,6.00
2019-04-21T19:06:03.878Z,7.15
2019-04-21T19:08:20.737Z,7.30
2019-04-21T19:10:26.798Z,6.67
2019-04-21T19:12:36.621Z,6.65
2019-04-21T19:14:43.218Z,6.53
2019-04-21T19:18:56.533Z,6.50
2019-04-21T19:20:54.032Z,7.00
2019-04-21T19:22:59.059Z,6.20
2019-04-21T19:25:04.808Z,6.17
2019-04-21T19:27:18.861Z,5.83
2019-04-21T19:29:26.711Z,6.42
2019-04-21T19:31:24.905Z,6.50
2019-04-21T19:33:28.535Z,5.90
2019-04-21T19:35:17.314Z,6.50
2019-04-21T19:37:25.915Z,7.72
2019-04-21T19:39:39.983Z,8.25
2019-04-21T19:41:47.247Z,7.65
2019-04-21T19:43:57.571Z,8.60
2019-04-21T19:45:59.668Z,8.43
2019-04-21T19:48:05.355Z,8.88
2019-04-21T19:50:11.773Z,8.60
2019-04-21T19:52:05.496Z,8.63
2019-04-21T19:54:14.397Z,8.70
2019-04-21T19:56:09.983Z,8.95
2019-04-21T19:58:14.805Z,9.20
2019-04-21T20:00:19.326Z,8.88
2019-04-21T20:02:24.574Z,8.38
2019-04-21T20:04:34.109Z,8.78
2019-04-21T20:06:48.967Z,10.13
2019-04-21T20:08:56.421Z,8.55
2019-04-21T20:11:03.897Z,8.15
2019-04-21T20:13:14.736Z,8.38
2019-04-21T20:15:23.248Z,7.95
2019-04-21T20:17:14.947Z,8.68
2019-04-21T20:19:11.765Z,8.75
2019-04-21T20:21:12.639Z,9.58
2019-04-21T20:23:23.453Z,11.97
2019-04-21T20:25:24.944Z,13.43
2019-04-21T20:27:38.548Z,11.00
2019-04-21T20:29:56.171Z,14.43
2019-04-21T20:31:54.960Z,16.32
2019-04-21T20:34:07.758Z,16.77
2019-04-21T20:38:12.348Z,18.20
2019-04-21T20:40:05.169Z,17.90
2019-04-21T20:42:21.614Z,15.88
2019-04-21T20:44:29.645Z,15.28
2019-04-21T20:46:35.097Z,14.87
2019-04-21T20:48:35.708Z,14.20
2019-04-21T20:50:37.925Z,13.20
2019-04-21T20:52:56.847Z,13.35
2019-04-21T20:54:53.942Z,14.00
2019-04-21T20:57:02.693Z,13.38
2019-04-21T20:59:07.289Z,11.78
2019-04-21T21:01:26.737Z,12.33
2019-04-21T21:03:23.182Z,12.25
2019-04-21T21:05:23.073Z,11.88
2019-04-21T21:07:40.207Z,12.15
2019-04-21T21:09:33.807Z,12.07
2019-04-21T21:11:41.085Z,11.53
2019-04-21T21:13:50.696Z,11.80
2019-04-21T21:16:06.157Z,12.45
2019-04-21T21:18:04.403Z,12.60
2019-04-21T21:20:07.807Z,12.55
2019-04-21T21:22:00.163Z,12.07
2019-04-21T21:24:08.752Z,14.15
2019-04-21T21:26:21.868Z,13.35
2019-04-21T21:28:22.710Z,14.68
2019-04-21T21:30:22.743Z,14.00
2019-04-21T21:32:32.013Z,14.25
2019-04-21T21:34:40.606Z,14.43
2019-04-21T21:36:41.830Z,13.75
2019-04-21T21:38:55.983Z,14.58
2019-04-21T21:40:51.421Z,13.28
2019-04-21T21:42:44.278Z,14.15
2019-04-21T21:44:58.628Z,13.90
2019-04-21T21:47:05.367Z,13.48
2019-04-21T21:49:07.316Z,12.80
2019-04-21T21:51:13.070Z,14.10
2019-04-21T21:53:14.511Z,13.40
2019-04-21T21:55:15.915Z,15.00
2019-04-21T21:57:20.656Z,14.13
2019-04-21T21:59:27.802Z,14.65
2019-04-21T22:01:38.056Z,15.25
2019-04-21T22:03:40.890Z,14.73
2019-04-21T22:05:46.592Z,14.25
2019-04-21T22:07:46.610Z,13.78
2019-04-21T22:09:50.543Z,14.00
2019-04-21T22:11:57.893Z,14.00
2019-04-21T22:14:04.365Z,15.68
2019-04-21T22:16:10.395Z,14.35
2019-04-21T22:18:28.525Z,15.00
2019-04-21T22:20:33.426Z,14.75
2019-04-21T22:22:32.784Z,14.95
2019-04-21T22:24:43.893Z,14.80
2019-04-21T22:26:33.184Z,15.10
2019-04-21T22:28:37.766Z,15.88
2019-04-21T22:30:46.444Z,15.38
2019-04-21T22:32:52.763Z,14.93
2019-04-21T22:34:58.292Z,14.03
2019-04-21T22:37:16.085Z,15.30
2019-04-21T22:39:19.481Z,15.80
2019-04-21T22:41:19.259Z,15.93
2019-04-21T22:43:24.262Z,15.08
2019-04-21T22:45:19.629Z,15.78
2019-04-21T22:47:26.978Z,16.02
2019-04-21T22:49:28.692Z,15.08
2019-04-21T22:51:37.641Z,15.20
2019-04-21T22:53:43.662Z,15.32
2019-04-21T22:55:43.084Z,15.80
2019-04-21T22:57:51.360Z,13.40
2019-04-21T22:59:59.928Z,15.50
2019-04-21T23:01:57.720Z,14.90
2019-04-21T23:04:02.936Z,16.52
2019-04-21T23:06:14.552Z,15.20
2019-04-21T23:08:13.014Z,14.35
2019-04-21T23:10:17.267Z,13.68
2019-04-21T23:12:28.065Z,11.88
2019-04-21T23:14:26.148Z,11.50
2019-04-21T23:18:46.080Z,11.53
2019-04-21T23:20:57.777Z,10.40
2019-04-21T23:23:05.060Z,10.25
2019-04-21T23:25:07.520Z,10.48
2019-04-21T23:27:11.777Z,10.50
2019-04-21T23:29:17.416Z,10.72
2019-04-21T23:31:24.534Z,11.00
2019-04-21T23:33:15.744Z,11.73
2019-04-21T23:35:25.800Z,10.98
2019-04-21T23:37:25.547Z,10.70
2019-04-21T23:39:31.039Z,10.15
2019-04-21T23:41:36.049Z,10.08
2019-04-21T23:43:38.932Z,10.28
2019-04-21T23:45:44.757Z,10.53
2019-04-21T23:48:01.905Z,11.00
2019-04-21T23:50:02.750Z,10.28
2019-04-21T23:52:03.114Z,9.68
2019-04-21T23:54:05.088Z,10.00
2019-04-21T23:56:13.433Z,9.33
2019-04-21T23:58:22.247Z,8.80
